sensor_id;sensor_type;location;lat;lon;timestamp;pressure;altitude;pressure_sealevel;temperature;humidity
45040;BME280;30778;53.574;7.770;2023-02-27T00:01:59;102922.38;;;-2.58;50.05
45040;BME280;30778;53.574;7.770;2023-02-27T00:04:25;102920.91;;;-2.53;49.68
45040;BME280;30778;53.574;7.770;2023-02-27T00:06:50;102920.31;;;-2.65;49.34
45040;BME280;30778;53.574;7.770;2023-02-27T00:09:16;102917.91;;;-2.80;49.41
45040;BME280;30778;53.574;7.770;2023-02-27T00:11:41;102919.09;;;-2.91;49.91
45040;BME280;30778;53.574;7.770;2023-02-27T00:14:07;102916.66;;;-2.88;49.51
45040;BME280;30778;53.574;7.770;2023-02-27T00:16:33;102923.25;;;-2.93;49.48
45040;BME280;30778;53.574;7.770;2023-02-27T00:18:58;102925.03;;;-3.09;50.03
45040;BME280;30778;53.574;7.770;2023-02-27T00:21:27;102922.19;;;-3.15;49.77
45040;BME280;30778;53.574;7.770;2023-02-27T00:23:52;102929.34;;;-3.08;50.17
45040;BME280;30778;53.574;7.770;2023-02-27T00:26:18;102927.72;;;-3.23;49.97
45040;BME280;30778;53.574;7.770;2023-02-27T00:28:43;102924.56;;;-3.36;50.31
45040;BME280;30778;53.574;7.770;2023-02-27T00:31:09;102924.84;;;-3.30;50.28
45040;BME280;30778;53.574;7.770;2023-02-27T00:33:34;102922.44;;;-3.27;50.30
45040;BME280;30778;53.574;7.770;2023-02-27T00:36:01;102929.06;;;-3.14;50.10
45040;BME280;30778;53.574;7.770;2023-02-27T00:38:27;102927.75;;;-3.06;49.81
45040;BME280;30778;53.574;7.770;2023-02-27T00:41:04;102924.41;;;-3.05;49.27
45040;BME280;30778;53.574;7.770;2023-02-27T00:43:29;102922.03;;;-3.18;49.64
45040;BME280;30778;53.574;7.770;2023-02-27T00:45:55;102926.50;;;-3.14;49.63
45040;BME280;30778;53.574;7.770;2023-02-27T00:48:20;102927.44;;;-3.12;49.69
45040;BME280;30778;53.574;7.770;2023-02-27T00:50:46;102920.84;;;-3.24;49.65
45040;BME280;30778;53.574;7.770;2023-02-27T00:53:12;102924.78;;;-3.31;49.90
45040;BME280;30778;53.574;7.770;2023-02-27T00:55:37;102924.50;;;-3.19;49.72
45040;BME280;30778;53.574;7.770;2023-02-27T00:58:03;102925.25;;;-3.22;49.56
45040;BME280;30778;53.574;7.770;2023-02-27T01:00:29;102926.19;;;-3.36;49.96
45040;BME280;30778;53.574;7.770;2023-02-27T01:02:55;102932.72;;;-3.25;49.89
45040;BME280;30778;53.574;7.770;2023-02-27T01:05:22;102926.19;;;-3.36;49.69
45040;BME280;30778;53.574;7.770;2023-02-27T01:07:47;102932.63;;;-3.44;49.81
45040;BME280;30778;53.574;7.770;2023-02-27T01:10:13;102932.31;;;-3.51;50.00
45040;BME280;30778;53.574;7.770;2023-02-27T01:12:39;102934.47;;;-3.58;49.92
45040;BME280;30778;53.574;7.770;2023-02-27T01:15:06;102935.81;;;-3.49;50.16
45040;BME280;30778;53.574;7.770;2023-02-27T01:17:32;102935.25;;;-3.43;50.37
45040;BME280;30778;53.574;7.770;2023-02-27T01:19:58;102939.97;;;-3.51;50.58
45040;BME280;30778;53.574;7.770;2023-02-27T01:22:23;102936.44;;;-3.36;50.45
45040;BME280;30778;53.574;7.770;2023-02-27T01:24:49;102944.19;;;-3.35;50.61
45040;BME280;30778;53.574;7.770;2023-02-27T01:27:15;102938.34;;;-3.32;50.30
45040;BME280;30778;53.574;7.770;2023-02-27T01:29:41;102942.91;;;-3.43;50.13
45040;BME280;30778;53.574;7.770;2023-02-27T01:32:06;102948.94;;;-3.42;49.91
45040;BME280;30778;53.574;7.770;2023-02-27T01:34:32;102944.13;;;-3.53;50.05
45040;BME280;30778;53.574;7.770;2023-02-27T01:37:00;102951.78;;;-3.53;50.18
45040;BME280;30778;53.574;7.770;2023-02-27T01:39:26;102954.50;;;-3.50;49.84
45040;BME280;30778;53.574;7.770;2023-02-27T01:41:52;102955.63;;;-3.61;50.04
45040;BME280;30778;53.574;7.770;2023-02-27T01:44:19;102955.56;;;-3.62;50.11
45040;BME280;30778;53.574;7.770;2023-02-27T01:46:45;102949.63;;;-3.61;49.95
45040;BME280;30778;53.574;7.770;2023-02-27T01:49:18;102953.72;;;-3.65;50.20
45040;BME280;30778;53.574;7.770;2023-02-27T01:51:49;102947.09;;;-3.61;49.87
45040;BME280;30778;53.574;7.770;2023-02-27T01:54:19;102952.81;;;-3.65;49.91
45040;BME280;30778;53.574;7.770;2023-02-27T01:56:47;102946.59;;;-3.71;50.02
45040;BME280;30778;53.574;7.770;2023-02-27T01:59:14;102957.47;;;-3.75;49.98
45040;BME280;30778;53.574;7.770;2023-02-27T02:01:40;102951.34;;;-3.78;50.15
45040;BME280;30778;53.574;7.770;2023-02-27T02:06:37;102951.25;;;-3.80;50.07
45040;BME280;30778;53.574;7.770;2023-02-27T02:09:05;102948.69;;;-3.80;50.03
45040;BME280;30778;53.574;7.770;2023-02-27T02:11:31;102951.97;;;-3.66;50.04
45040;BME280;30778;53.574;7.770;2023-02-27T02:13:59;102946.69;;;-3.69;50.17
45040;BME280;30778;53.574;7.770;2023-02-27T02:19:19;102947.09;;;-3.78;49.91
45040;BME280;30778;53.574;7.770;2023-02-27T02:22:06;102949.41;;;-3.82;49.83
45040;BME280;30778;53.574;7.770;2023-02-27T02:28:03;102942.31;;;-3.72;50.39
45040;BME280;30778;53.574;7.770;2023-02-27T02:30:43;102939.50;;;-3.76;50.40
45040;BME280;30778;53.574;7.770;2023-02-27T02:44:19;102942.69;;;-3.80;50.02
45040;BME280;30778;53.574;7.770;2023-02-27T02:49:35;102932.78;;;-3.91;50.30
45040;BME280;30778;53.574;7.770;2023-02-27T02:52:21;102944.84;;;-3.88;50.37
45040;BME280;30778;53.574;7.770;2023-02-27T02:57:47;102942.38;;;-3.86;50.48
45040;BME280;30778;53.574;7.770;2023-02-27T03:00:27;102945.88;;;-3.84;50.30
45040;BME280;30778;53.574;7.770;2023-02-27T03:03:07;102937.66;;;-3.95;50.49
45040;BME280;30778;53.574;7.770;2023-02-27T03:05:38;102936.78;;;-3.96;50.45
45040;BME280;30778;53.574;7.770;2023-02-27T03:08:07;102946.56;;;-4.03;50.24
45040;BME280;30778;53.574;7.770;2023-02-27T03:11:00;102939.16;;;-3.99;50.18
45040;BME280;30778;53.574;7.770;2023-02-27T03:13:42;102932.16;;;-4.03;50.68
45040;BME280;30778;53.574;7.770;2023-02-27T03:18:59;102936.59;;;-3.99;50.61
45040;BME280;30778;53.574;7.770;2023-02-27T03:21:37;102934.13;;;-3.97;50.85
45040;BME280;30778;53.574;7.770;2023-02-27T03:24:07;102938.31;;;-3.83;50.48
45040;BME280;30778;53.574;7.770;2023-02-27T03:26:38;102943.81;;;-3.92;50.21
45040;BME280;30778;53.574;7.770;2023-02-27T03:29:09;102952.09;;;-3.96;50.31
45040;BME280;30778;53.574;7.770;2023-02-27T03:34:35;102957.44;;;-4.07;50.41
45040;BME280;30778;53.574;7.770;2023-02-27T03:40:15;102956.13;;;-4.16;50.32
45040;BME280;30778;53.574;7.770;2023-02-27T03:42:48;102957.63;;;-4.19;50.42
45040;BME280;30778;53.574;7.770;2023-02-27T03:45:39;102958.09;;;-4.26;50.46
45040;BME280;30778;53.574;7.770;2023-02-27T03:48:07;102957.94;;;-4.30;50.61
45040;BME280;30778;53.574;7.770;2023-02-27T03:50:35;102966.97;;;-4.20;50.48
45040;BME280;30778;53.574;7.770;2023-02-27T03:53:04;102969.13;;;-4.27;50.62
45040;BME280;30778;53.574;7.770;2023-02-27T03:55:34;102973.81;;;-4.19;50.12
45040;BME280;30778;53.574;7.770;2023-02-27T03:58:02;102967.34;;;-4.28;50.16
45040;BME280;30778;53.574;7.770;2023-02-27T04:00:29;102973.56;;;-4.23;50.37
45040;BME280;30778;53.574;7.770;2023-02-27T04:02:56;102972.47;;;-4.28;50.35
45040;BME280;30778;53.574;7.770;2023-02-27T04:05:24;102978.13;;;-4.34;50.67
45040;BME280;30778;53.574;7.770;2023-02-27T04:08:49;102976.78;;;-4.27;50.56
45040;BME280;30778;53.574;7.770;2023-02-27T04:11:39;102978.25;;;-4.16;50.63
45040;BME280;30778;53.574;7.770;2023-02-27T04:17:20;102984.03;;;-3.88;50.61
45040;BME280;30778;53.574;7.770;2023-02-27T04:22:35;102983.75;;;-3.61;50.64
45040;BME280;30778;53.574;7.770;2023-02-27T04:25:30;102990.56;;;-3.45;50.36
45040;BME280;30778;53.574;7.770;2023-02-27T04:28:13;102999.34;;;-3.40;50.42
45040;BME280;30778;53.574;7.770;2023-02-27T04:31:01;102994.06;;;-3.27;50.38
45040;BME280;30778;53.574;7.770;2023-02-27T04:33:43;102999.88;;;-3.13;49.93
45040;BME280;30778;53.574;7.770;2023-02-27T04:41:28;103010.84;;;-2.81;49.70
45040;BME280;30778;53.574;7.770;2023-02-27T04:43:55;103015.97;;;-2.81;49.75
45040;BME280;30778;53.574;7.770;2023-02-27T04:46:24;103009.63;;;-2.71;49.83
45040;BME280;30778;53.574;7.770;2023-02-27T04:48:54;103014.25;;;-2.64;49.93
45040;BME280;30778;53.574;7.770;2023-02-27T04:51:26;103009.34;;;-2.59;49.77
45040;BME280;30778;53.574;7.770;2023-02-27T04:54:11;103018.63;;;-2.61;49.59
45040;BME280;30778;53.574;7.770;2023-02-27T04:56:48;103021.94;;;-2.46;49.62
45040;BME280;30778;53.574;7.770;2023-02-27T04:59:38;103023.78;;;-2.26;49.53
45040;BME280;30778;53.574;7.770;2023-02-27T05:02:11;103025.91;;;-2.35;49.26
45040;BME280;30778;53.574;7.770;2023-02-27T05:04:39;103026.88;;;-2.33;49.38
45040;BME280;30778;53.574;7.770;2023-02-27T05:07:10;103030.28;;;-2.32;49.65
45040;BME280;30778;53.574;7.770;2023-02-27T05:09:42;103032.56;;;-2.21;49.61
45040;BME280;30778;53.574;7.770;2023-02-27T05:12:20;103026.13;;;-2.12;49.60
45040;BME280;30778;53.574;7.770;2023-02-27T05:14:55;103034.34;;;-2.19;49.63
45040;BME280;30778;53.574;7.770;2023-02-27T05:17:34;103039.66;;;-2.15;49.72
45040;BME280;30778;53.574;7.770;2023-02-27T05:20:02;103036.81;;;-2.03;49.84
45040;BME280;30778;53.574;7.770;2023-02-27T05:22:54;103035.06;;;-2.04;50.01
45040;BME280;30778;53.574;7.770;2023-02-27T05:25:28;103032.25;;;-1.91;50.15
45040;BME280;30778;53.574;7.770;2023-02-27T05:30:28;103037.34;;;-1.73;50.05
45040;BME280;30778;53.574;7.770;2023-02-27T05:33:04;103036.47;;;-1.73;50.04
45040;BME280;30778;53.574;7.770;2023-02-27T05:36:09;103033.09;;;-1.72;50.01
45040;BME280;30778;53.574;7.770;2023-02-27T05:38:31;103041.41;;;-1.59;50.13
45040;BME280;30778;53.574;7.770;2023-02-27T05:41:04;103049.72;;;-1.64;49.91
45040;BME280;30778;53.574;7.770;2023-02-27T05:43:36;103040.97;;;-1.50;50.01
45040;BME280;30778;53.574;7.770;2023-02-27T05:46:11;103040.13;;;-1.49;50.02
45040;BME280;30778;53.574;7.770;2023-02-27T05:48:41;103027.47;;;-1.46;50.13
45040;BME280;30778;53.574;7.770;2023-02-27T05:51:10;103025.50;;;-1.32;50.21
45040;BME280;30778;53.574;7.770;2023-02-27T05:53:43;103032.88;;;-1.40;50.02
45040;BME280;30778;53.574;7.770;2023-02-27T05:56:11;103035.44;;;-1.40;50.11
45040;BME280;30778;53.574;7.770;2023-02-27T05:58:42;103039.34;;;-1.48;50.13
45040;BME280;30778;53.574;7.770;2023-02-27T06:01:10;103033.28;;;-1.30;49.87
45040;BME280;30778;53.574;7.770;2023-02-27T06:03:37;103030.75;;;-1.29;50.05
45040;BME280;30778;53.574;7.770;2023-02-27T06:06:06;103037.75;;;-1.26;50.04
45040;BME280;30778;53.574;7.770;2023-02-27T06:08:33;103035.41;;;-1.20;49.89
45040;BME280;30778;53.574;7.770;2023-02-27T06:10:58;103023.53;;;-1.18;50.01
45040;BME280;30778;53.574;7.770;2023-02-27T06:13:24;103026.72;;;-1.04;50.14
45040;BME280;30778;53.574;7.770;2023-02-27T06:15:51;103027.75;;;-1.01;50.00
45040;BME280;30778;53.574;7.770;2023-02-27T06:18:17;103033.63;;;-1.03;50.07
45040;BME280;30778;53.574;7.770;2023-02-27T06:20:43;103039.19;;;-1.12;50.02
45040;BME280;30778;53.574;7.770;2023-02-27T06:23:10;103035.25;;;-1.05;50.42
45040;BME280;30778;53.574;7.770;2023-02-27T06:25:36;103041.78;;;-0.92;50.14
45040;BME280;30778;53.574;7.770;2023-02-27T06:28:02;103031.19;;;-1.00;49.78
45040;BME280;30778;53.574;7.770;2023-02-27T06:30:28;103037.41;;;-0.95;50.16
45040;BME280;30778;53.574;7.770;2023-02-27T06:32:53;103034.00;;;-0.94;50.40
45040;BME280;30778;53.574;7.770;2023-02-27T06:35:19;103042.53;;;-0.95;50.26
45040;BME280;30778;53.574;7.770;2023-02-27T06:37:45;103037.44;;;-1.13;49.80
45040;BME280;30778;53.574;7.770;2023-02-27T06:40:11;103042.91;;;-1.25;50.33
45040;BME280;30778;53.574;7.770;2023-02-27T06:42:38;103038.81;;;-1.21;50.52
45040;BME280;30778;53.574;7.770;2023-02-27T06:45:04;103049.59;;;-1.09;50.44
45040;BME280;30778;53.574;7.770;2023-02-27T06:47:30;103052.22;;;-1.07;50.59
45040;BME280;30778;53.574;7.770;2023-02-27T06:49:56;103061.09;;;-1.01;50.46
45040;BME280;30778;53.574;7.770;2023-02-27T06:52:22;103066.75;;;-1.08;50.52
45040;BME280;30778;53.574;7.770;2023-02-27T06:54:47;103067.69;;;-0.86;50.32
45040;BME280;30778;53.574;7.770;2023-02-27T06:57:13;103070.97;;;-0.90;50.30
45040;BME280;30778;53.574;7.770;2023-02-27T06:59:39;103079.06;;;-0.81;50.58
45040;BME280;30778;53.574;7.770;2023-02-27T07:02:04;103076.72;;;-0.75;50.43
45040;BME280;30778;53.574;7.770;2023-02-27T07:04:30;103078.47;;;-0.54;49.85
45040;BME280;30778;53.574;7.770;2023-02-27T07:06:55;103086.59;;;-0.44;49.83
45040;BME280;30778;53.574;7.770;2023-02-27T07:09:21;103087.63;;;-0.40;49.76
45040;BME280;30778;53.574;7.770;2023-02-27T07:11:47;103085.94;;;-0.19;50.02
45040;BME280;30778;53.574;7.770;2023-02-27T07:14:13;103085.44;;;-0.10;49.28
45040;BME280;30778;53.574;7.770;2023-02-27T07:16:41;103087.00;;;0.09;49.24
45040;BME280;30778;53.574;7.770;2023-02-27T07:19:06;103092.81;;;0.26;49.12
45040;BME280;30778;53.574;7.770;2023-02-27T07:21:32;103091.38;;;0.33;48.88
45040;BME280;30778;53.574;7.770;2023-02-27T07:24:00;103093.97;;;0.34;48.39
45040;BME280;30778;53.574;7.770;2023-02-27T07:26:29;103101.59;;;0.54;49.03
45040;BME280;30778;53.574;7.770;2023-02-27T07:28:54;103104.25;;;0.79;48.75
45040;BME280;30778;53.574;7.770;2023-02-27T07:31:20;103104.03;;;0.97;47.95
45040;BME280;30778;53.574;7.770;2023-02-27T07:33:46;103111.38;;;1.10;48.31
45040;BME280;30778;53.574;7.770;2023-02-27T07:36:12;103104.84;;;1.44;47.77
45040;BME280;30778;53.574;7.770;2023-02-27T07:38:37;103099.66;;;1.70;46.90
45040;BME280;30778;53.574;7.770;2023-02-27T07:41:03;103109.84;;;1.92;45.87
45040;BME280;30778;53.574;7.770;2023-02-27T07:43:29;103106.94;;;2.09;46.02
45040;BME280;30778;53.574;7.770;2023-02-27T07:45:55;103110.91;;;2.55;46.36
45040;BME280;30778;53.574;7.770;2023-02-27T07:48:21;103112.47;;;3.10;45.10
45040;BME280;30778;53.574;7.770;2023-02-27T07:50:46;103118.25;;;3.67;44.05
45040;BME280;30778;53.574;7.770;2023-02-27T07:53:12;103113.75;;;4.32;41.69
45040;BME280;30778;53.574;7.770;2023-02-27T07:55:38;103105.09;;;5.15;40.29
45040;BME280;30778;53.574;7.770;2023-02-27T07:58:04;103100.72;;;6.18;38.74
45040;BME280;30778;53.574;7.770;2023-02-27T08:00:30;103099.47;;;7.31;36.04
45040;BME280;30778;53.574;7.770;2023-02-27T08:02:55;103105.84;;;7.63;35.47
45040;BME280;30778;53.574;7.770;2023-02-27T08:05:21;103104.00;;;9.36;31.82
45040;BME280;30778;53.574;7.770;2023-02-27T08:07:47;103098.13;;;11.36;30.47
45040;BME280;30778;53.574;7.770;2023-02-27T08:10:12;103102.16;;;12.56;27.29
45040;BME280;30778;53.574;7.770;2023-02-27T08:12:40;103094.34;;;13.14;25.90
45040;BME280;30778;53.574;7.770;2023-02-27T08:15:06;103096.88;;;12.59;25.90
45040;BME280;30778;53.574;7.770;2023-02-27T08:17:32;103096.78;;;12.65;27.25
45040;BME280;30778;53.574;7.770;2023-02-27T08:19:58;103100.34;;;11.84;26.73
45040;BME280;30778;53.574;7.770;2023-02-27T08:22:24;103096.13;;;11.66;27.35
45040;BME280;30778;53.574;7.770;2023-02-27T08:24:49;103090.56;;;12.03;27.17
45040;BME280;30778;53.574;7.770;2023-02-27T08:27:15;103087.47;;;13.06;25.54
45040;BME280;30778;53.574;7.770;2023-02-27T08:29:41;103092.41;;;12.66;25.95
45040;BME280;30778;53.574;7.770;2023-02-27T08:32:08;103100.97;;;11.07;27.49
45040;BME280;30778;53.574;7.770;2023-02-27T08:34:33;103101.41;;;9.81;29.62
45040;BME280;30778;53.574;7.770;2023-02-27T08:36:59;103113.31;;;8.45;31.46
45040;BME280;30778;53.574;7.770;2023-02-27T08:39:24;103115.00;;;8.40;32.39
45040;BME280;30778;53.574;7.770;2023-02-27T08:41:51;103120.13;;;8.19;33.05
45040;BME280;30778;53.574;7.770;2023-02-27T08:44:19;103116.13;;;7.52;34.20
45040;BME280;30778;53.574;7.770;2023-02-27T08:46:45;103117.94;;;7.56;34.37
45040;BME280;30778;53.574;7.770;2023-02-27T08:49:11;103109.97;;;7.44;34.30
45040;BME280;30778;53.574;7.770;2023-02-27T08:51:36;103119.97;;;7.01;34.87
45040;BME280;30778;53.574;7.770;2023-02-27T08:54:02;103120.81;;;6.98;35.44
45040;BME280;30778;53.574;7.770;2023-02-27T08:56:28;103122.00;;;7.29;34.66
45040;BME280;30778;53.574;7.770;2023-02-27T08:58:54;103121.22;;;6.62;35.69
45040;BME280;30778;53.574;7.770;2023-02-27T09:01:19;103121.00;;;6.43;36.79
45040;BME280;30778;53.574;7.770;2023-02-27T09:03:45;103116.00;;;5.99;37.11
45040;BME280;30778;53.574;7.770;2023-02-27T09:06:11;103117.69;;;5.96;37.26
45040;BME280;30778;53.574;7.770;2023-02-27T09:08:37;103129.59;;;5.83;38.36
45040;BME280;30778;53.574;7.770;2023-02-27T09:11:03;103125.84;;;5.64;37.92
45040;BME280;30778;53.574;7.770;2023-02-27T09:13:28;103125.28;;;5.82;37.91
45040;BME280;30778;53.574;7.770;2023-02-27T09:15:54;103122.75;;;6.44;37.25
45040;BME280;30778;53.574;7.770;2023-02-27T09:18:19;103119.13;;;6.35;37.63
45040;BME280;30778;53.574;7.770;2023-02-27T09:20:45;103124.16;;;6.86;36.05
45040;BME280;30778;53.574;7.770;2023-02-27T09:23:12;103119.50;;;6.61;37.16
45040;BME280;30778;53.574;7.770;2023-02-27T09:25:38;103125.41;;;6.49;37.72
45040;BME280;30778;53.574;7.770;2023-02-27T09:28:03;103129.53;;;6.33;36.58
45040;BME280;30778;53.574;7.770;2023-02-27T09:30:29;103129.78;;;6.52;36.54
45040;BME280;30778;53.574;7.770;2023-02-27T09:32:54;103125.56;;;6.61;36.81
45040;BME280;30778;53.574;7.770;2023-02-27T09:35:20;103119.84;;;6.90;35.07
45040;BME280;30778;53.574;7.770;2023-02-27T09:37:46;103120.19;;;6.47;35.01
45040;BME280;30778;53.574;7.770;2023-02-27T09:40:23;103112.91;;;6.22;34.90
45040;BME280;30778;53.574;7.770;2023-02-27T09:42:50;103121.59;;;6.25;35.74
45040;BME280;30778;53.574;7.770;2023-02-27T09:45:26;103122.53;;;6.29;34.08
45040;BME280;30778;53.574;7.770;2023-02-27T09:48:20;103124.69;;;6.61;33.75
45040;BME280;30778;53.574;7.770;2023-02-27T09:50:51;103121.00;;;6.43;33.27
45040;BME280;30778;53.574;7.770;2023-02-27T09:53:36;103119.09;;;7.00;32.83
45040;BME280;30778;53.574;7.770;2023-02-27T09:56:25;103116.03;;;6.60;32.72
45040;BME280;30778;53.574;7.770;2023-02-27T10:06:44;103128.50;;;6.25;34.21
45040;BME280;30778;53.574;7.770;2023-02-27T10:09:36;103134.09;;;7.27;33.47
45040;BME280;30778;53.574;7.770;2023-02-27T10:14:41;103119.63;;;7.56;31.95
45040;BME280;30778;53.574;7.770;2023-02-27T10:17:17;103121.00;;;7.18;32.50
45040;BME280;30778;53.574;7.770;2023-02-27T10:19:46;103125.63;;;7.47;32.18
45040;BME280;30778;53.574;7.770;2023-02-27T10:22:17;103121.59;;;7.78;31.78
45040;BME280;30778;53.574;7.770;2023-02-27T10:24:52;103130.88;;;7.53;30.84
45040;BME280;30778;53.574;7.770;2023-02-27T10:27:20;103132.63;;;7.54;30.89
45040;BME280;30778;53.574;7.770;2023-02-27T10:29:46;103136.03;;;7.47;31.33
45040;BME280;30778;53.574;7.770;2023-02-27T10:32:22;103129.13;;;7.50;31.13
45040;BME280;30778;53.574;7.770;2023-02-27T10:35:16;103130.97;;;7.59;31.41
45040;BME280;30778;53.574;7.770;2023-02-27T10:37:49;103134.06;;;8.28;30.70
45040;BME280;30778;53.574;7.770;2023-02-27T10:40:16;103130.75;;;8.62;29.38
45040;BME280;30778;53.574;7.770;2023-02-27T10:42:42;103132.50;;;8.69;28.42
45040;BME280;30778;53.574;7.770;2023-02-27T10:45:14;103135.00;;;8.41;29.31
45040;BME280;30778;53.574;7.770;2023-02-27T10:47:40;103136.63;;;8.22;30.34
45040;BME280;30778;53.574;7.770;2023-02-27T10:53:01;103137.81;;;8.83;29.52
45040;BME280;30778;53.574;7.770;2023-02-27T10:55:37;103145.28;;;8.20;29.40
45040;BME280;30778;53.574;7.770;2023-02-27T10:58:03;103148.19;;;7.51;31.25
45040;BME280;30778;53.574;7.770;2023-02-27T11:00:52;103145.53;;;7.43;31.39
45040;BME280;30778;53.574;7.770;2023-02-27T11:03:24;103147.84;;;7.14;31.24
45040;BME280;30778;53.574;7.770;2023-02-27T11:05:53;103146.63;;;6.83;30.57
45040;BME280;30778;53.574;7.770;2023-02-27T11:08:26;103152.81;;;6.94;31.30
45040;BME280;30778;53.574;7.770;2023-02-27T11:11:05;103154.66;;;7.03;30.30
45040;BME280;30778;53.574;7.770;2023-02-27T11:13:36;103145.97;;;7.91;30.08
45040;BME280;30778;53.574;7.770;2023-02-27T11:18:42;103143.09;;;7.57;30.60
45040;BME280;30778;53.574;7.770;2023-02-27T11:23:55;103147.28;;;7.43;31.90
45040;BME280;30778;53.574;7.770;2023-02-27T11:26:31;103147.91;;;7.20;31.89
45040;BME280;30778;53.574;7.770;2023-02-27T11:29:18;103144.31;;;7.10;32.79
45040;BME280;30778;53.574;7.770;2023-02-27T11:34:34;103133.31;;;8.52;31.51
45040;BME280;30778;53.574;7.770;2023-02-27T11:37:07;103139.19;;;8.18;31.52
45040;BME280;30778;53.574;7.770;2023-02-27T11:40:12;103137.56;;;8.32;32.22
45040;BME280;30778;53.574;7.770;2023-02-27T11:42:48;103146.47;;;7.50;33.19
45040;BME280;30778;53.574;7.770;2023-02-27T11:47:47;103135.22;;;7.54;33.68
45040;BME280;30778;53.574;7.770;2023-02-27T11:53:51;103133.53;;;7.58;32.80
45040;BME280;30778;53.574;7.770;2023-02-27T11:56:33;103146.41;;;7.44;32.91
45040;BME280;30778;53.574;7.770;2023-02-27T11:59:29;103145.97;;;7.01;33.49
45040;BME280;30778;53.574;7.770;2023-02-27T12:02:29;103142.00;;;6.62;34.42
45040;BME280;30778;53.574;7.770;2023-02-27T12:07:45;103141.78;;;6.42;35.01
45040;BME280;30778;53.574;7.770;2023-02-27T12:10:40;103138.00;;;6.87;35.05
45040;BME280;30778;53.574;7.770;2023-02-27T12:13:09;103140.84;;;7.08;35.25
45040;BME280;30778;53.574;7.770;2023-02-27T12:15:43;103135.59;;;7.04;35.69
45040;BME280;30778;53.574;7.770;2023-02-27T12:18:26;103129.59;;;7.12;34.89
45040;BME280;30778;53.574;7.770;2023-02-27T12:21:12;103127.53;;;7.63;34.46
45040;BME280;30778;53.574;7.770;2023-02-27T12:23:45;103123.69;;;7.27;34.65
45040;BME280;30778;53.574;7.770;2023-02-27T12:26:20;103133.97;;;7.15;35.85
45040;BME280;30778;53.574;7.770;2023-02-27T12:28:59;103132.56;;;7.45;35.65
45040;BME280;30778;53.574;7.770;2023-02-27T12:31:39;103132.47;;;7.37;35.58
45040;BME280;30778;53.574;7.770;2023-02-27T12:34:14;103141.78;;;7.14;35.65
45040;BME280;30778;53.574;7.770;2023-02-27T12:36:41;103132.44;;;7.34;35.77
45040;BME280;30778;53.574;7.770;2023-02-27T12:39:16;103128.41;;;7.65;35.33
45040;BME280;30778;53.574;7.770;2023-02-27T12:50:04;103122.13;;;6.03;38.38
45040;BME280;30778;53.574;7.770;2023-02-27T12:52:55;103121.97;;;6.52;37.70
45040;BME280;30778;53.574;7.770;2023-02-27T12:55:27;103130.50;;;5.85;38.30
45040;BME280;30778;53.574;7.770;2023-02-27T13:00:55;103126.91;;;5.77;39.75
45040;BME280;30778;53.574;7.770;2023-02-27T13:03:54;103117.78;;;6.02;39.42
45040;BME280;30778;53.574;7.770;2023-02-27T13:06:31;103117.66;;;5.41;41.24
45040;BME280;30778;53.574;7.770;2023-02-27T13:17:25;103117.56;;;5.88;40.13
45040;BME280;30778;53.574;7.770;2023-02-27T13:20:17;103117.69;;;6.54;38.92
45040;BME280;30778;53.574;7.770;2023-02-27T13:25:28;103114.59;;;6.21;38.39
45040;BME280;30778;53.574;7.770;2023-02-27T13:27:59;103104.69;;;5.94;39.39
45040;BME280;30778;53.574;7.770;2023-02-27T13:30:31;103108.19;;;5.96;38.57
45040;BME280;30778;53.574;7.770;2023-02-27T13:33:19;103111.88;;;6.11;38.98
45040;BME280;30778;53.574;7.770;2023-02-27T13:35:54;103110.78;;;6.56;38.08
45040;BME280;30778;53.574;7.770;2023-02-27T13:43:49;103116.16;;;6.08;38.60
45040;BME280;30778;53.574;7.770;2023-02-27T13:46:32;103105.81;;;6.12;39.29
45040;BME280;30778;53.574;7.770;2023-02-27T13:59:23;103107.91;;;5.78;38.46
45040;BME280;30778;53.574;7.770;2023-02-27T14:01:54;103114.63;;;6.23;38.67
45040;BME280;30778;53.574;7.770;2023-02-27T14:04:21;103118.03;;;6.19;38.24
45040;BME280;30778;53.574;7.770;2023-02-27T14:06:49;103107.72;;;6.25;38.68
45040;BME280;30778;53.574;7.770;2023-02-27T14:09:19;103120.22;;;6.50;38.87
45040;BME280;30778;53.574;7.770;2023-02-27T14:11:54;103117.09;;;6.14;38.69
45040;BME280;30778;53.574;7.770;2023-02-27T14:14:44;103117.91;;;6.09;38.99
45040;BME280;30778;53.574;7.770;2023-02-27T14:20:02;103112.88;;;5.65;39.05
45040;BME280;30778;53.574;7.770;2023-02-27T14:31:27;103121.31;;;6.07;39.97
45040;BME280;30778;53.574;7.770;2023-02-27T14:33:55;103121.56;;;5.67;40.14
45040;BME280;30778;53.574;7.770;2023-02-27T14:36:31;103138.34;;;5.38;41.49
45040;BME280;30778;53.574;7.770;2023-02-27T14:39:00;103128.38;;;5.61;40.61
45040;BME280;30778;53.574;7.770;2023-02-27T14:41:37;103123.09;;;5.56;40.56
45040;BME280;30778;53.574;7.770;2023-02-27T14:44:18;103126.75;;;5.67;40.51
45040;BME280;30778;53.574;7.770;2023-02-27T14:46:44;103124.25;;;5.74;41.04
45040;BME280;30778;53.574;7.770;2023-02-27T14:49:20;103128.28;;;5.06;42.79
45040;BME280;30778;53.574;7.770;2023-02-27T14:51:46;103120.25;;;5.41;42.19
45040;BME280;30778;53.574;7.770;2023-02-27T14:54:14;103135.38;;;5.65;41.89
45040;BME280;30778;53.574;7.770;2023-02-27T14:57:01;103122.38;;;5.65;42.26
45040;BME280;30778;53.574;7.770;2023-02-27T14:59:31;103125.69;;;5.55;42.35
45040;BME280;30778;53.574;7.770;2023-02-27T15:02:02;103115.84;;;5.37;43.02
45040;BME280;30778;53.574;7.770;2023-02-27T15:04:30;103121.25;;;5.49;43.00
45040;BME280;30778;53.574;7.770;2023-02-27T15:06:57;103119.31;;;4.90;43.42
45040;BME280;30778;53.574;7.770;2023-02-27T15:09:29;103117.63;;;4.92;42.52
45040;BME280;30778;53.574;7.770;2023-02-27T15:11:57;103114.56;;;4.71;43.18
45040;BME280;30778;53.574;7.770;2023-02-27T15:14:29;103102.66;;;4.80;43.27
45040;BME280;30778;53.574;7.770;2023-02-27T15:16:56;103099.50;;;4.94;43.67
45040;BME280;30778;53.574;7.770;2023-02-27T15:19:24;103108.72;;;5.23;43.42
45040;BME280;30778;53.574;7.770;2023-02-27T15:21:57;103110.56;;;5.31;43.43
45040;BME280;30778;53.574;7.770;2023-02-27T15:24:30;103109.47;;;5.18;43.70